Duluth International Airport
KDLH : now visible

Airfield :











YOU CAN JOIN US ON...

 
LOGIN :

Register | Disclaimer

   EN    FR    IT 

 









Legend :    VFR   Marginal VFR   IFR   Intensive IFR   Very Intensive IFR
Visi :
Ceiling :
>= 8 km
>= 3000ft
5 to 8 km
1000 to 3000 ft
1500m to 5 km
500 to 1000 ft
800 to 1500m
200 to 500 ft
< 800m
< 200 ft
Symbols :   Thunderstorms  Fog  Heavy snow  Heavy precipitations  Wind > 20 kt







- Airport Elevation : 1428 ft
- IATA code : DLH


KDLH - Duluth International

CURRENT METAR :
  • 261055Z 34003KT 10SM CLR 08/07 A3005 RMK AO2 SLP183 T00830067

EXPIRED METARs :
  • 260955Z 33004KT 10SM CLR 09/06 A3004 RMK AO2 SLP176 T00890061
  • 260855Z 33004KT 10SM CLR 09/06 A3002 RMK AO2 SLP170 T00940061 53004

TAF KDLH
Valid from the 26 at 06:00 until the 27 at 06:00 UTC


260529Z 2606/2706 VRB04KT P6SM SKC
FM262100 16005KT P6SM BKN120
FM262300 06011KT P6SM BKN120
FM270100 08010G15KT P6SM BKN070
KZMP FIR / North America



MET'MAP, your aeronautical weather chart ! - Copyright ORBIFLY December 2007 - Disclaimer

ORBIFLY MET'MAP TEAM :

Programming & Development : Alexandra Zaïnal
Concept & Development : Baudouin d'Aumeries
Co-Development & Prog : Marc-Olivier Méhu
Technical & hardware support : Manuel Goepfert

Contact : metmap@orbifly.com




SOURCES & CREDITS :

   NOAA       Earth
Advisory